sensor_id;sensor_type;location;lat;lon;timestamp;noise_LAeq;noise_LA_min;noise_LA_max;noise_LA01;noise_LA95
67322;Laerm;57666;51.436;5.978;2023-05-07T00:00:04;46.67;45.35;48.82;;
67322;Laerm;57666;51.436;5.978;2023-05-07T00:00:17;47.48;45.02;53.48;;
67322;Laerm;57666;51.436;5.978;2023-05-07T00:00:29;46.74;44.68;48.25;;
67322;Laerm;57666;51.436;5.978;2023-05-07T00:00:39;46.70;44.90;48.88;;
67322;Laerm;57666;51.436;5.978;2023-05-07T00:00:50;47.02;44.98;49.30;;
67322;Laerm;57666;51.436;5.978;2023-05-07T00:01:01;46.84;45.54;48.93;;
67322;Laerm;57666;51.436;5.978;2023-05-07T00:01:12;46.87;45.35;48.35;;
67322;Laerm;57666;51.436;5.978;2023-05-07T00:01:22;47.07;45.23;48.72;;
67322;Laerm;57666;51.436;5.978;2023-05-07T00:01:33;46.65;45.19;48.58;;
67322;Laerm;57666;51.436;5.978;2023-05-07T00:01:44;46.72;45.21;48.52;;
67322;Laerm;57666;51.436;5.978;2023-05-07T00:01:55;46.62;44.36;51.82;;
67322;Laerm;57666;51.436;5.978;2023-05-07T00:02:06;46.73;45.19;48.62;;
67322;Laerm;57666;51.436;5.978;2023-05-07T00:02:20;46.67;45.02;48.95;;
67322;Laerm;57666;51.436;5.978;2023-05-07T00:02:30;46.86;45.44;48.98;;
67322;Laerm;57666;51.436;5.978;2023-05-07T00:02:40;46.75;44.92;48.39;;
67322;Laerm;57666;51.436;5.978;2023-05-07T00:02:51;46.65;44.96;49.19;;
67322;Laerm;57666;51.436;5.978;2023-05-07T00:03:01;46.86;44.83;49.27;;
67322;Laerm;57666;51.436;5.978;2023-05-07T00:03:11;46.83;45.08;48.89;;
67322;Laerm;57666;51.436;5.978;2023-05-07T00:03:23;46.87;45.41;49.60;;
67322;Laerm;57666;51.436;5.978;2023-05-07T00:03:34;46.80;44.99;48.17;;
67322;Laerm;57666;51.436;5.978;2023-05-07T00:03:44;46.82;45.06;48.48;;
67322;Laerm;57666;51.436;5.978;2023-05-07T00:03:54;46.61;44.95;48.15;;
67322;Laerm;57666;51.436;5.978;2023-05-07T00:04:04;46.52;44.72;47.90;;
67322;Laerm;57666;51.436;5.978;2023-05-07T00:04:15;46.76;45.21;49.93;;
67322;Laerm;57666;51.436;5.978;2023-05-07T00:04:25;46.58;44.90;48.02;;
67322;Laerm;57666;51.436;5.978;2023-05-07T00:04:35;46.73;44.95;48.53;;
67322;Laerm;57666;51.436;5.978;2023-05-07T00:04:47;46.58;44.91;50.15;;
67322;Laerm;57666;51.436;5.978;2023-05-07T00:04:58;46.76;45.19;48.65;;
67322;Laerm;57666;51.436;5.978;2023-05-07T00:05:08;46.81;45.12;48.43;;
67322;Laerm;57666;51.436;5.978;2023-05-07T00:05:18;46.57;45.22;49.05;;
67322;Laerm;57666;51.436;5.978;2023-05-07T00:05:31;46.71;44.89;48.40;;
67322;Laerm;57666;51.436;5.978;2023-05-07T00:05:41;46.73;44.85;48.40;;
67322;Laerm;57666;51.436;5.978;2023-05-07T00:05:52;46.98;44.97;51.73;;
67322;Laerm;57666;51.436;5.978;2023-05-07T00:06:03;46.79;44.99;49.64;;
67322;Laerm;57666;51.436;5.978;2023-05-07T00:06:13;46.81;44.91;49.46;;
67322;Laerm;57666;51.436;5.978;2023-05-07T00:06:24;46.89;44.84;49.43;;
67322;Laerm;57666;51.436;5.978;2023-05-07T00:06:36;46.72;44.77;54.38;;
67322;Laerm;57666;51.436;5.978;2023-05-07T00:06:46;46.47;44.83;48.51;;
67322;Laerm;57666;51.436;5.978;2023-05-07T00:06:56;46.33;44.85;49.93;;
67322;Laerm;57666;51.436;5.978;2023-05-07T00:07:06;46.45;44.55;48.38;;
67322;Laerm;57666;51.436;5.978;2023-05-07T00:07:19;46.46;44.43;48.60;;
67322;Laerm;57666;51.436;5.978;2023-05-07T00:07:30;46.58;45.00;49.11;;
67322;Laerm;57666;51.436;5.978;2023-05-07T00:07:40;46.64;44.97;52.61;;
67322;Laerm;57666;51.436;5.978;2023-05-07T00:07:51;46.55;44.68;51.50;;
67322;Laerm;57666;51.436;5.978;2023-05-07T00:08:02;46.88;44.81;54.11;;
67322;Laerm;57666;51.436;5.978;2023-05-07T00:08:13;46.57;44.56;53.42;;
67322;Laerm;57666;51.436;5.978;2023-05-07T00:08:23;46.27;44.92;47.82;;
67322;Laerm;57666;51.436;5.978;2023-05-07T00:08:35;46.50;45.04;48.31;;
67322;Laerm;57666;51.436;5.978;2023-05-07T00:08:46;46.49;44.66;47.98;;
67322;Laerm;57666;51.436;5.978;2023-05-07T00:08:56;46.54;44.80;48.07;;
67322;Laerm;57666;51.436;5.978;2023-05-07T00:09:07;46.51;44.49;48.22;;
67322;Laerm;57666;51.436;5.978;2023-05-07T00:09:18;46.21;44.51;47.41;;
67322;Laerm;57666;51.436;5.978;2023-05-07T00:09:28;46.35;44.70;48.51;;
67322;Laerm;57666;51.436;5.978;2023-05-07T00:09:38;46.27;44.80;48.58;;
67322;Laerm;57666;51.436;5.978;2023-05-07T00:09:48;46.36;44.88;49.09;;
67322;Laerm;57666;51.436;5.978;2023-05-07T00:09:59;46.19;44.69;47.93;;
67322;Laerm;57666;51.436;5.978;2023-05-07T00:10:09;46.45;44.83;48.76;;
67322;Laerm;57666;51.436;5.978;2023-05-07T00:10:20;46.52;45.03;48.52;;
67322;Laerm;57666;51.436;5.978;2023-05-07T00:10:30;46.46;44.73;48.46;;
67322;Laerm;57666;51.436;5.978;2023-05-07T00:10:41;46.54;44.99;48.03;;
67322;Laerm;57666;51.436;5.978;2023-05-07T00:10:51;46.44;44.84;48.05;;
67322;Laerm;57666;51.436;5.978;2023-05-07T00:11:01;46.39;44.65;48.29;;
67322;Laerm;57666;51.436;5.978;2023-05-07T00:11:12;46.33;44.32;48.14;;
67322;Laerm;57666;51.436;5.978;2023-05-07T00:11:25;46.22;44.31;48.02;;
67322;Laerm;57666;51.436;5.978;2023-05-07T00:11:36;46.31;44.80;48.29;;
67322;Laerm;57666;51.436;5.978;2023-05-07T00:11:46;46.51;44.98;49.56;;
67322;Laerm;57666;51.436;5.978;2023-05-07T00:11:56;46.48;44.81;48.17;;
67322;Laerm;57666;51.436;5.978;2023-05-07T00:12:07;46.50;44.76;48.38;;
67322;Laerm;57666;51.436;5.978;2023-05-07T00:12:20;46.42;44.94;50.26;;
67322;Laerm;57666;51.436;5.978;2023-05-07T00:12:30;46.23;44.35;48.33;;
67322;Laerm;57666;51.436;5.978;2023-05-07T00:12:43;46.15;44.42;47.74;;
67322;Laerm;57666;51.436;5.978;2023-05-07T00:12:53;46.36;44.80;48.16;;
67322;Laerm;57666;51.436;5.978;2023-05-07T00:13:04;46.26;44.60;53.08;;
67322;Laerm;57666;51.436;5.978;2023-05-07T00:13:14;46.69;44.90;48.41;;
67322;Laerm;57666;51.436;5.978;2023-05-07T00:13:25;46.71;44.69;48.88;;
67322;Laerm;57666;51.436;5.978;2023-05-07T00:13:35;46.16;44.64;48.11;;
67322;Laerm;57666;51.436;5.978;2023-05-07T00:13:46;46.51;45.10;49.85;;
67322;Laerm;57666;51.436;5.978;2023-05-07T00:13:57;46.27;45.05;48.27;;
67322;Laerm;57666;51.436;5.978;2023-05-07T00:14:07;46.19;44.46;48.39;;
67322;Laerm;57666;51.436;5.978;2023-05-07T00:14:17;46.48;44.69;48.10;;
67322;Laerm;57666;51.436;5.978;2023-05-07T00:14:30;46.22;44.42;48.03;;
67322;Laerm;57666;51.436;5.978;2023-05-07T00:14:41;46.54;44.71;48.07;;
67322;Laerm;57666;51.436;5.978;2023-05-07T00:14:51;46.43;44.52;50.34;;
67322;Laerm;57666;51.436;5.978;2023-05-07T00:15:02;46.45;44.81;48.26;;
67322;Laerm;57666;51.436;5.978;2023-05-07T00:15:13;46.39;44.73;48.19;;
67322;Laerm;57666;51.436;5.978;2023-05-07T00:15:23;46.20;44.58;48.13;;
67322;Laerm;57666;51.436;5.978;2023-05-07T00:15:33;46.43;45.09;48.32;;
67322;Laerm;57666;51.436;5.978;2023-05-07T00:15:44;46.53;44.95;49.87;;
67322;Laerm;57666;51.436;5.978;2023-05-07T00:15:54;46.45;45.00;48.87;;
67322;Laerm;57666;51.436;5.978;2023-05-07T00:16:04;47.18;45.14;49.64;;
67322;Laerm;57666;51.436;5.978;2023-05-07T00:16:15;53.80;46.08;63.01;;
67322;Laerm;57666;51.436;5.978;2023-05-07T00:16:25;46.57;45.06;48.21;;
67322;Laerm;57666;51.436;5.978;2023-05-07T00:16:35;46.38;44.53;48.02;;
67322;Laerm;57666;51.436;5.978;2023-05-07T00:16:46;46.25;44.43;49.72;;
67322;Laerm;57666;51.436;5.978;2023-05-07T00:16:56;46.43;44.89;47.95;;
67322;Laerm;57666;51.436;5.978;2023-05-07T00:17:06;46.65;45.40;49.19;;
67322;Laerm;57666;51.436;5.978;2023-05-07T00:17:19;46.26;44.21;47.90;;
67322;Laerm;57666;51.436;5.978;2023-05-07T00:17:30;46.49;44.82;48.23;;
67322;Laerm;57666;51.436;5.978;2023-05-07T00:17:40;46.46;44.78;48.24;;
67322;Laerm;57666;51.436;5.978;2023-05-07T00:17:50;46.39;44.87;48.17;;
67322;Laerm;57666;51.436;5.978;2023-05-07T00:18:01;46.94;45.05;49.03;;
67322;Laerm;57666;51.436;5.978;2023-05-07T00:18:11;57.84;47.16;69.28;;
67322;Laerm;57666;51.436;5.978;2023-05-07T00:18:21;47.28;44.87;51.99;;
67322;Laerm;57666;51.436;5.978;2023-05-07T00:18:32;47.10;44.85;49.55;;
67322;Laerm;57666;51.436;5.978;2023-05-07T00:18:42;46.86;45.03;48.67;;
67322;Laerm;57666;51.436;5.978;2023-05-07T00:18:53;47.50;45.54;52.24;;
67322;Laerm;57666;51.436;5.978;2023-05-07T00:19:03;48.95;45.79;56.49;;
67322;Laerm;57666;51.436;5.978;2023-05-07T00:19:14;47.66;45.28;53.00;;
67322;Laerm;57666;51.436;5.978;2023-05-07T00:19:24;48.71;45.55;56.29;;
67322;Laerm;57666;51.436;5.978;2023-05-07T00:19:34;49.03;45.67;57.32;;
67322;Laerm;57666;51.436;5.978;2023-05-07T00:19:45;52.50;45.94;63.78;;
67322;Laerm;57666;51.436;5.978;2023-05-07T00:19:55;55.30;45.78;70.41;;
67322;Laerm;57666;51.436;5.978;2023-05-07T00:20:06;50.08;45.72;59.54;;
67322;Laerm;57666;51.436;5.978;2023-05-07T00:20:16;51.59;46.72;58.89;;
67322;Laerm;57666;51.436;5.978;2023-05-07T00:20:27;53.12;46.30;61.58;;
67322;Laerm;57666;51.436;5.978;2023-05-07T00:20:37;52.20;46.61;59.86;;
67322;Laerm;57666;51.436;5.978;2023-05-07T00:20:47;58.48;46.99;68.84;;
67322;Laerm;57666;51.436;5.978;2023-05-07T00:20:58;58.77;47.26;71.10;;
67322;Laerm;57666;51.436;5.978;2023-05-07T00:21:08;55.84;46.89;67.37;;
67322;Laerm;57666;51.436;5.978;2023-05-07T00:21:18;58.73;47.06;72.30;;
67322;Laerm;57666;51.436;5.978;2023-05-07T00:21:33;57.48;47.03;69.56;;
67322;Laerm;57666;51.436;5.978;2023-05-07T00:21:44;55.12;46.38;63.46;;
67322;Laerm;57666;51.436;5.978;2023-05-07T00:21:54;57.32;45.97;69.07;;
67322;Laerm;57666;51.436;5.978;2023-05-07T00:22:06;55.11;46.76;63.63;;
67322;Laerm;57666;51.436;5.978;2023-05-07T00:22:17;61.09;46.01;74.48;;
67322;Laerm;57666;51.436;5.978;2023-05-07T00:22:27;64.27;48.08;75.80;;
67322;Laerm;57666;51.436;5.978;2023-05-07T00:22:40;59.43;46.66;72.24;;
67322;Laerm;57666;51.436;5.978;2023-05-07T00:22:50;61.73;46.61;70.60;;
67322;Laerm;57666;51.436;5.978;2023-05-07T00:23:00;63.59;56.31;75.44;;
67322;Laerm;57666;51.436;5.978;2023-05-07T00:23:11;65.04;46.97;78.91;;
67322;Laerm;57666;51.436;5.978;2023-05-07T00:23:22;64.54;46.87;81.65;;
67322;Laerm;57666;51.436;5.978;2023-05-07T00:23:32;53.88;46.54;63.25;;
67322;Laerm;57666;51.436;5.978;2023-05-07T00:23:42;56.26;46.70;66.39;;
67322;Laerm;57666;51.436;5.978;2023-05-07T00:23:53;56.23;47.98;64.95;;
67322;Laerm;57666;51.436;5.978;2023-05-07T00:24:04;67.04;46.33;80.40;;
67322;Laerm;57666;51.436;5.978;2023-05-07T00:24:14;64.99;46.48;72.87;;
67322;Laerm;57666;51.436;5.978;2023-05-07T00:24:24;65.61;46.79;76.78;;
67322;Laerm;57666;51.436;5.978;2023-05-07T00:24:37;58.88;47.65;74.36;;
67322;Laerm;57666;51.436;5.978;2023-05-07T00:24:47;63.50;52.04;73.11;;
67322;Laerm;57666;51.436;5.978;2023-05-07T00:24:58;51.14;46.06;59.35;;
67322;Laerm;57666;51.436;5.978;2023-05-07T00:25:09;51.37;46.29;63.83;;
67322;Laerm;57666;51.436;5.978;2023-05-07T00:25:20;49.93;45.71;60.81;;
67322;Laerm;57666;51.436;5.978;2023-05-07T00:25:30;49.05;45.21;57.78;;
67322;Laerm;57666;51.436;5.978;2023-05-07T00:25:40;50.25;45.59;60.58;;
67322;Laerm;57666;51.436;5.978;2023-05-07T00:25:51;51.91;45.79;59.81;;
67322;Laerm;57666;51.436;5.978;2023-05-07T00:26:01;49.01;45.32;56.84;;
67322;Laerm;57666;51.436;5.978;2023-05-07T00:26:12;48.80;45.06;57.68;;
67322;Laerm;57666;51.436;5.978;2023-05-07T00:26:22;48.30;45.69;53.65;;
67322;Laerm;57666;51.436;5.978;2023-05-07T00:26:32;49.48;44.96;59.98;;
67322;Laerm;57666;51.436;5.978;2023-05-07T00:26:45;48.95;44.67;60.16;;
67322;Laerm;57666;51.436;5.978;2023-05-07T00:26:56;47.58;44.53;55.14;;
67322;Laerm;57666;51.436;5.978;2023-05-07T00:27:08;47.11;44.89;51.62;;
67322;Laerm;57666;51.436;5.978;2023-05-07T00:27:18;47.03;44.98;50.75;;
67322;Laerm;57666;51.436;5.978;2023-05-07T00:27:28;46.59;44.74;51.09;;
67322;Laerm;57666;51.436;5.978;2023-05-07T00:27:39;50.76;45.11;60.99;;
67322;Laerm;57666;51.436;5.978;2023-05-07T00:27:49;51.21;44.78;64.24;;
67322;Laerm;57666;51.436;5.978;2023-05-07T00:28:02;50.30;45.85;58.70;;
67322;Laerm;57666;51.436;5.978;2023-05-07T00:28:13;48.53;44.81;59.42;;
67322;Laerm;57666;51.436;5.978;2023-05-07T00:28:32;52.36;45.56;65.93;;
67322;Laerm;57666;51.436;5.978;2023-05-07T00:28:45;53.92;44.64;68.09;;
67322;Laerm;57666;51.436;5.978;2023-05-07T00:28:56;53.85;44.29;66.68;;
67322;Laerm;57666;51.436;5.978;2023-05-07T00:29:09;58.81;44.51;69.94;;
67322;Laerm;57666;51.436;5.978;2023-05-07T00:29:19;58.39;45.43;70.35;;
67322;Laerm;57666;51.436;5.978;2023-05-07T00:29:30;55.92;45.07;67.86;;
67322;Laerm;57666;51.436;5.978;2023-05-07T00:29:40;53.53;45.43;66.56;;
67322;Laerm;57666;51.436;5.978;2023-05-07T00:29:50;51.09;44.99;62.25;;
67322;Laerm;57666;51.436;5.978;2023-05-07T00:30:01;47.06;44.92;52.53;;
67322;Laerm;57666;51.436;5.978;2023-05-07T00:30:11;46.63;44.83;49.68;;
67322;Laerm;57666;51.436;5.978;2023-05-07T00:30:21;46.51;44.84;53.06;;
67322;Laerm;57666;51.436;5.978;2023-05-07T00:30:32;47.89;45.28;58.43;;
67322;Laerm;57666;51.436;5.978;2023-05-07T00:30:42;47.09;44.63;58.29;;
67322;Laerm;57666;51.436;5.978;2023-05-07T00:30:52;48.28;45.82;57.07;;
67322;Laerm;57666;51.436;5.978;2023-05-07T00:31:03;47.12;45.47;49.06;;
67322;Laerm;57666;51.436;5.978;2023-05-07T00:31:13;47.95;45.16;53.80;;
67322;Laerm;57666;51.436;5.978;2023-05-07T00:31:23;48.07;46.38;50.18;;
67322;Laerm;57666;51.436;5.978;2023-05-07T00:31:34;48.08;46.48;49.77;;
67322;Laerm;57666;51.436;5.978;2023-05-07T00:31:44;53.06;47.25;61.06;;
67322;Laerm;57666;51.436;5.978;2023-05-07T00:31:54;47.19;45.17;52.25;;
67322;Laerm;57666;51.436;5.978;2023-05-07T00:32:05;46.41;44.71;48.10;;
67322;Laerm;57666;51.436;5.978;2023-05-07T00:32:15;46.16;44.61;48.01;;
67322;Laerm;57666;51.436;5.978;2023-05-07T00:32:28;46.47;44.55;48.95;;
67322;Laerm;57666;51.436;5.978;2023-05-07T00:32:38;47.34;45.17;50.85;;
67322;Laerm;57666;51.436;5.978;2023-05-07T00:32:51;47.92;45.07;57.99;;
67322;Laerm;57666;51.436;5.978;2023-05-07T00:33:02;61.90;45.68;71.91;;
67322;Laerm;57666;51.436;5.978;2023-05-07T00:33:12;46.37;44.88;47.86;;
67322;Laerm;57666;51.436;5.978;2023-05-07T00:33:22;46.25;44.78;48.27;;
67322;Laerm;57666;51.436;5.978;2023-05-07T00:33:33;46.17;44.90;47.73;;
67322;Laerm;57666;51.436;5.978;2023-05-07T00:33:43;46.29;44.90;48.04;;
67322;Laerm;57666;51.436;5.978;2023-05-07T00:33:53;46.39;44.58;48.08;;
67322;Laerm;57666;51.436;5.978;2023-05-07T00:34:04;46.56;44.97;48.02;;
67322;Laerm;57666;51.436;5.978;2023-05-07T00:34:14;47.70;45.50;50.05;;
67322;Laerm;57666;51.436;5.978;2023-05-07T00:34:24;46.51;44.61;48.81;;
67322;Laerm;57666;51.436;5.978;2023-05-07T00:34:35;46.54;44.30;48.48;;
67322;Laerm;57666;51.436;5.978;2023-05-07T00:34:45;46.52;45.15;47.93;;
67322;Laerm;57666;51.436;5.978;2023-05-07T00:34:55;46.28;44.74;49.09;;
67322;Laerm;57666;51.436;5.978;2023-05-07T00:35:06;46.50;44.78;48.38;;
67322;Laerm;57666;51.436;5.978;2023-05-07T00:35:16;46.38;44.80;48.27;;
67322;Laerm;57666;51.436;5.978;2023-05-07T00:35:28;46.43;44.80;48.94;;
67322;Laerm;57666;51.436;5.978;2023-05-07T00:35:38;46.21;44.37;47.96;;
67322;Laerm;57666;51.436;5.978;2023-05-07T00:35:48;46.47;44.87;48.02;;
67322;Laerm;57666;51.436;5.978;2023-05-07T00:35:59;46.35;44.37;49.33;;
67322;Laerm;57666;51.436;5.978;2023-05-07T00:36:13;46.51;44.69;48.30;;
67322;Laerm;57666;51.436;5.978;2023-05-07T00:36:23;46.47;45.16;48.75;;
67322;Laerm;57666;51.436;5.978;2023-05-07T00:36:34;46.63;45.08;49.51;;
67322;Laerm;57666;51.436;5.978;2023-05-07T00:36:44;46.45;44.72;47.79;;
67322;Laerm;57666;51.436;5.978;2023-05-07T00:36:55;46.36;44.85;48.38;;
67322;Laerm;57666;51.436;5.978;2023-05-07T00:37:05;46.25;44.84;48.52;;
67322;Laerm;57666;51.436;5.978;2023-05-07T00:37:17;46.30;44.77;47.94;;
67322;Laerm;57666;51.436;5.978;2023-05-07T00:37:27;46.28;43.91;48.47;;
67322;Laerm;57666;51.436;5.978;2023-05-07T00:37:38;46.21;44.09;48.13;;
67322;Laerm;57666;51.436;5.978;2023-05-07T00:37:51;46.38;44.58;48.48;;
67322;Laerm;57666;51.436;5.978;2023-05-07T00:38:03;46.34;44.73;48.20;;
67322;Laerm;57666;51.436;5.978;2023-05-07T00:38:14;46.41;44.78;47.95;;
67322;Laerm;57666;51.436;5.978;2023-05-07T00:38:24;46.44;44.82;48.46;;
67322;Laerm;57666;51.436;5.978;2023-05-07T00:38:35;46.32;44.76;48.14;;
67322;Laerm;57666;51.436;5.978;2023-05-07T00:38:45;46.57;44.77;48.79;;
67322;Laerm;57666;51.436;5.978;2023-05-07T00:38:56;46.30;44.86;48.26;;
67322;Laerm;57666;51.436;5.978;2023-05-07T00:39:07;46.48;44.94;48.58;;
67322;Laerm;57666;51.436;5.978;2023-05-07T00:39:20;46.30;44.61;47.98;;
67322;Laerm;57666;51.436;5.978;2023-05-07T00:39:33;46.39;44.50;48.46;;
67322;Laerm;57666;51.436;5.978;2023-05-07T00:39:43;46.46;44.32;48.95;;
67322;Laerm;57666;51.436;5.978;2023-05-07T00:39:54;46.52;45.11;48.47;;
67322;Laerm;57666;51.436;5.978;2023-05-07T00:40:04;46.46;44.68;48.13;;
67322;Laerm;57666;51.436;5.978;2023-05-07T00:40:20;46.41;44.80;48.58;;
67322;Laerm;57666;51.436;5.978;2023-05-07T00:40:30;46.63;45.07;48.29;;
67322;Laerm;57666;51.436;5.978;2023-05-07T00:40:41;46.38;44.85;48.21;;
67322;Laerm;57666;51.436;5.978;2023-05-07T00:40:51;46.29;44.92;48.23;;
67322;Laerm;57666;51.436;5.978;2023-05-07T00:41:01;46.33;44.66;48.11;;
67322;Laerm;57666;51.436;5.978;2023-05-07T00:41:12;46.20;44.02;50.26;;
67322;Laerm;57666;51.436;5.978;2023-05-07T00:41:22;46.61;44.88;48.11;;
67322;Laerm;57666;51.436;5.978;2023-05-07T00:41:35;46.58;44.89;48.53;;
67322;Laerm;57666;51.436;5.978;2023-05-07T00:41:46;46.45;44.81;47.66;;
67322;Laerm;57666;51.436;5.978;2023-05-07T00:41:57;46.41;44.47;48.43;;
67322;Laerm;57666;51.436;5.978;2023-05-07T00:42:07;46.44;44.50;48.14;;
67322;Laerm;57666;51.436;5.978;2023-05-07T00:42:18;46.16;44.52;48.26;;
67322;Laerm;57666;51.436;5.978;2023-05-07T00:42:28;46.53;44.92;48.88;;
67322;Laerm;57666;51.436;5.978;2023-05-07T00:42:42;46.26;44.68;48.95;;
67322;Laerm;57666;51.436;5.978;2023-05-07T00:42:57;46.51;44.59;48.34;;
67322;Laerm;57666;51.436;5.978;2023-05-07T00:43:08;46.49;45.11;48.21;;
67322;Laerm;57666;51.436;5.978;2023-05-07T00:43:18;46.50;44.61;48.40;;
67322;Laerm;57666;51.436;5.978;2023-05-07T00:43:29;46.47;44.79;48.53;;
67322;Laerm;57666;51.436;5.978;2023-05-07T00:43:39;46.38;44.72;48.14;;
67322;Laerm;57666;51.436;5.978;2023-05-07T00:43:50;46.37;44.64;47.94;;
67322;Laerm;57666;51.436;5.978;2023-05-07T00:44:01;46.58;45.02;47.91;;
67322;Laerm;57666;51.436;5.978;2023-05-07T00:44:12;46.44;44.78;48.36;;
67322;Laerm;57666;51.436;5.978;2023-05-07T00:44:23;46.70;45.13;48.27;;
67322;Laerm;57666;51.436;5.978;2023-05-07T00:44:33;46.36;44.52;49.92;;
67322;Laerm;57666;51.436;5.978;2023-05-07T00:44:43;46.28;44.41;48.03;;
67322;Laerm;57666;51.436;5.978;2023-05-07T00:44:54;46.42;45.08;48.67;;
67322;Laerm;57666;51.436;5.978;2023-05-07T00:45:05;46.35;44.95;49.30;;
67322;Laerm;57666;51.436;5.978;2023-05-07T00:45:19;46.33;44.44;48.06;;
67322;Laerm;57666;51.436;5.978;2023-05-07T00:45:29;46.27;45.04;47.85;;
67322;Laerm;57666;51.436;5.978;2023-05-07T00:45:39;46.24;44.62;49.90;;
67322;Laerm;57666;51.436;5.978;2023-05-07T00:45:50;46.41;44.77;48.52;;
67322;Laerm;57666;51.436;5.978;2023-05-07T00:46:00;46.99;45.31;49.32;;
67322;Laerm;57666;51.436;5.978;2023-05-07T00:46:11;46.62;44.79;48.54;;
67322;Laerm;57666;51.436;5.978;2023-05-07T00:46:22;46.48;44.94;48.23;;
67322;Laerm;57666;51.436;5.978;2023-05-07T00:46:33;46.15;44.37;48.34;;
67322;Laerm;57666;51.436;5.978;2023-05-07T00:46:43;46.29;44.39;48.56;;
67322;Laerm;57666;51.436;5.978;2023-05-07T00:46:55;46.32;44.78;48.04;;
67322;Laerm;57666;51.436;5.978;2023-05-07T00:47:06;46.28;44.85;47.71;;
67322;Laerm;57666;51.436;5.978;2023-05-07T00:47:17;46.30;44.65;50.68;;
67322;Laerm;57666;51.436;5.978;2023-05-07T00:47:27;46.32;44.55;48.13;;
67322;Laerm;57666;51.436;5.978;2023-05-07T00:47:38;46.32;44.43;48.31;;
67322;Laerm;57666;51.436;5.978;2023-05-07T00:47:48;46.39;44.82;48.11;;
67322;Laerm;57666;51.436;5.978;2023-05-07T00:47:59;46.17;44.62;48.58;;
67322;Laerm;57666;51.436;5.978;2023-05-07T00:48:10;46.35;44.79;48.56;;
67322;Laerm;57666;51.436;5.978;2023-05-07T00:48:21;46.41;44.68;48.00;;
67322;Laerm;57666;51.436;5.978;2023-05-07T00:48:31;46.39;44.82;48.31;;
67322;Laerm;57666;51.436;5.978;2023-05-07T00:48:42;46.48;44.81;47.83;;
67322;Laerm;57666;51.436;5.978;2023-05-07T00:48:52;46.61;45.02;48.86;;
67322;Laerm;57666;51.436;5.978;2023-05-07T00:49:03;46.41;44.66;48.40;;
67322;Laerm;57666;51.436;5.978;2023-05-07T00:49:15;46.35;44.84;48.39;;
67322;Laerm;57666;51.436;5.978;2023-05-07T00:49:26;46.37;44.47;48.20;;
67322;Laerm;57666;51.436;5.978;2023-05-07T00:49:43;46.38;44.68;47.96;;
67322;Laerm;57666;51.436;5.978;2023-05-07T00:49:54;46.34;44.75;48.58;;
67322;Laerm;57666;51.436;5.978;2023-05-07T00:50:04;46.41;44.69;48.44;;
67322;Laerm;57666;51.436;5.978;2023-05-07T00:50:15;46.43;44.83;48.29;;
67322;Laerm;57666;51.436;5.978;2023-05-07T00:50:27;46.35;44.45;48.22;;
67322;Laerm;57666;51.436;5.978;2023-05-07T00:50:38;46.42;44.67;48.57;;
67322;Laerm;57666;51.436;5.978;2023-05-07T00:50:48;46.36;44.26;48.91;;
67322;Laerm;57666;51.436;5.978;2023-05-07T00:50:58;46.39;44.98;48.09;;
67322;Laerm;57666;51.436;5.978;2023-05-07T00:51:12;46.40;44.63;48.67;;
67322;Laerm;57666;51.436;5.978;2023-05-07T00:51:23;46.36;44.67;48.27;;
67322;Laerm;57666;51.436;5.978;2023-05-07T00:51:33;46.46;44.46;48.68;;
67322;Laerm;57666;51.436;5.978;2023-05-07T00:51:44;46.47;44.55;48.63;;
67322;Laerm;57666;51.436;5.978;2023-05-07T00:51:55;46.53;44.82;48.67;;
67322;Laerm;57666;51.436;5.978;2023-05-07T00:52:06;46.50;44.98;48.10;;
67322;Laerm;57666;51.436;5.978;2023-05-07T00:52:20;46.70;44.96;48.40;;
67322;Laerm;57666;51.436;5.978;2023-05-07T00:52:31;46.54;44.99;48.38;;
67322;Laerm;57666;51.436;5.978;2023-05-07T00:52:42;46.70;45.21;48.73;;
67322;Laerm;57666;51.436;5.978;2023-05-07T00:52:53;46.42;44.81;47.91;;
67322;Laerm;57666;51.436;5.978;2023-05-07T00:53:03;46.30;44.63;49.67;;
67322;Laerm;57666;51.436;5.978;2023-05-07T00:53:14;46.59;44.02;50.06;;
67322;Laerm;57666;51.436;5.978;2023-05-07T00:53:24;46.61;45.06;48.29;;
67322;Laerm;57666;51.436;5.978;2023-05-07T00:53:34;46.59;44.72;48.57;;
67322;Laerm;57666;51.436;5.978;2023-05-07T00:53:45;47.08;44.85;49.67;;
67322;Laerm;57666;51.436;5.978;2023-05-07T00:53:58;46.53;44.61;48.82;;
67322;Laerm;57666;51.436;5.978;2023-05-07T00:54:08;46.42;44.85;48.01;;
67322;Laerm;57666;51.436;5.978;2023-05-07T00:54:18;46.64;44.77;48.45;;
67322;Laerm;57666;51.436;5.978;2023-05-07T00:54:29;46.43;44.76;49.19;;
67322;Laerm;57666;51.436;5.978;2023-05-07T00:54:40;46.58;45.20;48.23;;
67322;Laerm;57666;51.436;5.978;2023-05-07T00:54:50;46.32;44.72;48.19;;
67322;Laerm;57666;51.436;5.978;2023-05-07T00:55:02;46.59;45.00;48.14;;
67322;Laerm;57666;51.436;5.978;2023-05-07T00:55:14;46.63;44.85;48.65;;
67322;Laerm;57666;51.436;5.978;2023-05-07T00:55:24;46.63;44.76;48.56;;
67322;Laerm;57666;51.436;5.978;2023-05-07T00:55:35;46.85;44.93;48.88;;
67322;Laerm;57666;51.436;5.978;2023-05-07T00:55:45;46.54;44.79;48.59;;
67322;Laerm;57666;51.436;5.978;2023-05-07T00:55:56;46.17;44.57;47.80;;
67322;Laerm;57666;51.436;5.978;2023-05-07T00:56:06;46.59;44.94;49.93;;
67322;Laerm;57666;51.436;5.978;2023-05-07T00:56:17;46.36;44.94;48.24;;
67322;Laerm;57666;51.436;5.978;2023-05-07T00:56:27;46.40;44.56;47.96;;
67322;Laerm;57666;51.436;5.978;2023-05-07T00:56:38;46.48;44.92;48.04;;
67322;Laerm;57666;51.436;5.978;2023-05-07T00:56:49;46.46;44.77;48.52;;
67322;Laerm;57666;51.436;5.978;2023-05-07T00:56:59;46.29;44.96;48.16;;
67322;Laerm;57666;51.436;5.978;2023-05-07T00:57:10;46.40;44.56;47.92;;
67322;Laerm;57666;51.436;5.978;2023-05-07T00:57:23;46.58;45.02;49.48;;
67322;Laerm;57666;51.436;5.978;2023-05-07T00:57:36;46.57;44.82;48.04;;
67322;Laerm;57666;51.436;5.978;2023-05-07T00:57:49;46.45;44.31;48.83;;
67322;Laerm;57666;51.436;5.978;2023-05-07T00:57:59;46.37;44.62;48.40;;
67322;Laerm;57666;51.436;5.978;2023-05-07T00:58:10;46.63;45.34;49.02;;
67322;Laerm;57666;51.436;5.978;2023-05-07T00:58:20;46.91;45.37;48.87;;
67322;Laerm;57666;51.436;5.978;2023-05-07T00:58:31;47.00;44.94;51.39;;
67322;Laerm;57666;51.436;5.978;2023-05-07T00:58:41;46.33;44.91;50.92;;
67322;Laerm;57666;51.436;5.978;2023-05-07T00:58:54;46.32;44.75;47.84;;
67322;Laerm;57666;51.436;5.978;2023-05-07T00:59:05;46.61;44.61;48.52;;
67322;Laerm;57666;51.436;5.978;2023-05-07T00:59:15;46.59;45.14;48.70;;
67322;Laerm;57666;51.436;5.978;2023-05-07T00:59:25;46.29;44.92;47.63;;
67322;Laerm;57666;51.436;5.978;2023-05-07T00:59:36;46.43;44.67;48.19;;
67322;Laerm;57666;51.436;5.978;2023-05-07T00:59:46;46.54;44.89;48.17;;
67322;Laerm;57666;51.436;5.978;2023-05-07T00:59:57;46.41;44.51;48.08;;
67322;Laerm;57666;51.436;5.978;2023-05-07T01:00:08;47.39;44.97;52.71;;
67322;Laerm;57666;51.436;5.978;2023-05-07T01:00:19;47.24;45.15;53.19;;
67322;Laerm;57666;51.436;5.978;2023-05-07T01:00:29;46.57;44.85;48.54;;
67322;Laerm;57666;51.436;5.978;2023-05-07T01:00:40;46.50;44.96;47.88;;
67322;Laerm;57666;51.436;5.978;2023-05-07T01:00:50;46.64;44.97;48.75;;